Time;durP1;ratioP1;P1;durP2;ratioP2;P2;SDS_P1;SDS_P2;PMS_P1;PMS_P2;Temp;Humidity;BMP_temperature;BMP_pressure;BME280_temperature;BME280_humidity;BME280_pressure;Samples;Min_cycle;Max_cycle;Signal;HPM_P1;HPM_P2
2021/07/06 00:02:20;;;;;;;2.25;1.65;;;;;;;;;;4998181;28;20025;-79
2021/07/06 00:04:47;;;;;;;4.30;2.00;;;;;;;;;;4998135;28;20487;-78
2021/07/06 00:07:15;;;;;;;2.92;2.00;;;;;;;;;;5013981;28;20034;-79
2021/07/06 00:09:40;;;;;;;2.28;1.90;;;;;;;;;;4998535;28;20061;-79
2021/07/06 00:12:08;;;;;;;2.75;1.95;;;;;;;;;;4997894;28;20499;-79
2021/07/06 00:14:33;;;;;;;2.83;1.85;;;;;;;;;;4997895;28;20120;-79
2021/07/06 00:16:59;;;;;;;3.00;1.70;;;;;;;;;;4997899;28;20040;-79
2021/07/06 00:19:24;;;;;;;2.70;1.42;;;;;;;;;;4997741;28;20037;-79
2021/07/06 00:21:50;;;;;;;2.67;1.70;;;;;;;;;;5014156;28;20055;-79
2021/07/06 00:24:15;;;;;;;3.55;1.60;;;;;;;;;;4981339;28;20120;-78
2021/07/06 00:26:41;;;;;;;2.15;1.40;;;;;;;;;;4997686;28;20034;-79
2021/07/06 00:29:06;;;;;;;1.88;1.20;;;;;;;;;;4997986;28;20034;-78
2021/07/06 00:31:32;;;;;;;3.25;1.48;;;;;;;;;;4997790;28;20044;-79
2021/07/06 00:33:57;;;;;;;2.42;1.40;;;;;;;;;;4997762;28;20048;-79
2021/07/06 00:36:23;;;;;;;1.95;1.17;;;;;;;;;;4977603;28;20034;-78
2021/07/06 00:38:48;;;;;;;2.22;1.17;;;;;;;;;;4978236;28;20046;-79
2021/07/06 00:41:14;;;;;;;3.33;1.50;;;;;;;;;;4962229;28;20026;-79
2021/07/06 00:43:39;;;;;;;2.83;1.30;;;;;;;;;;4977947;28;20030;-78
2021/07/06 00:46:05;;;;;;;1.73;1.20;;;;;;;;;;4994585;28;20491;-79
2021/07/06 00:48:31;;;;;;;1.77;1.10;;;;;;;;;;4978229;28;20033;-78
2021/07/06 00:50:56;;;;;;;1.63;0.93;;;;;;;;;;5013117;28;20383;-80
2021/07/06 00:53:22;;;;;;;1.80;0.88;;;;;;;;;;5013986;28;20395;-79
2021/07/06 00:55:48;;;;;;;2.15;1.20;;;;;;;;;;5030140;28;20044;-79
2021/07/06 00:58:14;;;;;;;1.42;0.80;;;;;;;;;;5030385;28;20037;-78
2021/07/06 01:00:39;;;;;;;3.40;1.20;;;;;;;;;;5013641;28;20116;-78
2021/07/06 01:03:05;;;;;;;3.72;1.08;;;;;;;;;;4981261;28;20037;-79
2021/07/06 01:05:31;;;;;;;1.50;0.68;;;;;;;;;;4997310;28;20108;-79
2021/07/06 01:07:56;;;;;;;1.83;0.70;;;;;;;;;;4997554;28;20395;-79
2021/07/06 01:10:22;;;;;;;1.27;0.77;;;;;;;;;;4997361;28;20034;-79
2021/07/06 01:12:47;;;;;;;0.80;0.45;;;;;;;;;;4997250;28;20033;-79
2021/07/06 01:15:17;;;;;;;1.42;0.80;;;;;;;;;;4997424;28;20108;-79
2021/07/06 01:17:44;;;;;;;1.55;0.57;;;;;;;;;;5014536;28;20044;-79
2021/07/06 01:20:13;;;;;;;1.58;0.50;;;;;;;;;;4981197;28;20034;-78
2021/07/06 01:22:38;;;;;;;1.58;0.70;;;;;;;;;;4998266;28;20029;-79
2021/07/06 01:25:05;;;;;;;1.42;0.60;;;;;;;;;;5001320;28;20040;-79
2021/07/06 01:27:31;;;;;;;1.00;0.60;;;;;;;;;;5000819;28;20134;-79
2021/07/06 01:29:56;;;;;;;0.90;0.45;;;;;;;;;;4986252;28;20042;-79
2021/07/06 01:32:22;;;;;;;2.28;0.70;;;;;;;;;;4997496;28;20029;-79
2021/07/06 01:34:47;;;;;;;1.58;0.63;;;;;;;;;;4981034;28;20217;-79
2021/07/06 01:37:19;;;;;;;1.88;0.60;;;;;;;;;;4981074;28;20399;-79
2021/07/06 01:39:45;;;;;;;1.50;0.50;;;;;;;;;;4981379;28;20101;-81
2021/07/06 01:42:14;;;;;;;0.80;0.40;;;;;;;;;;4981412;28;20036;-79
2021/07/06 01:44:40;;;;;;;1.40;0.45;;;;;;;;;;4998000;28;20029;-78
2021/07/06 01:47:05;;;;;;;2.13;0.75;;;;;;;;;;4997454;28;20120;-79
2021/07/06 01:49:33;;;;;;;1.55;0.60;;;;;;;;;;4988032;28;20030;-79
2021/07/06 01:51:58;;;;;;;0.77;0.30;;;;;;;;;;5017412;28;20044;-79
2021/07/06 01:54:24;;;;;;;0.82;0.40;;;;;;;;;;5000004;28;20037;-79
2021/07/06 01:56:49;;;;;;;1.45;0.47;;;;;;;;;;5000647;28;20060;-79
2021/07/06 01:59:18;;;;;;;1.33;0.38;;;;;;;;;;5001508;28;20744;-79
2021/07/06 02:01:44;;;;;;;1.52;0.45;;;;;;;;;;5000428;28;20123;-79
2021/07/06 02:04:09;;;;;;;0.82;0.38;;;;;;;;;;4999927;28;20041;-79
2021/07/06 02:06:35;;;;;;;1.27;0.40;;;;;;;;;;5000229;28;20040;-79
2021/07/06 02:09:00;;;;;;;1.20;0.32;;;;;;;;;;5016622;28;20033;-79
2021/07/06 02:11:26;;;;;;;4.60;0.63;;;;;;;;;;5016752;28;20156;-79
2021/07/06 02:13:54;;;;;;;1.80;0.38;;;;;;;;;;5000194;28;20441;-79
2021/07/06 02:16:20;;;;;;;1.02;0.30;;;;;;;;;;5000042;28;20045;-79
2021/07/06 02:18:45;;;;;;;1.52;0.40;;;;;;;;;;5016152;28;20025;-79
2021/07/06 02:21:11;;;;;;;0.82;0.30;;;;;;;;;;4983578;28;20369;-79
2021/07/06 02:23:36;;;;;;;0.90;0.40;;;;;;;;;;4988895;28;20041;-79
2021/07/06 02:26:06;;;;;;;1.23;0.40;;;;;;;;;;4980542;28;20062;-79
2021/07/06 02:28:32;;;;;;;1.13;0.57;;;;;;;;;;4980563;28;20476;-79
2021/07/06 02:30:57;;;;;;;1.55;0.32;;;;;;;;;;4964398;28;20079;-79
2021/07/06 02:33:23;;;;;;;2.00;0.47;;;;;;;;;;4979964;28;20153;-79
2021/07/06 02:35:49;;;;;;;1.75;0.70;;;;;;;;;;4995321;28;20480;-79
2021/07/06 02:38:14;;;;;;;1.13;0.55;;;;;;;;;;4980092;28;20030;-79
2021/07/06 02:40:40;;;;;;;1.45;0.52;;;;;;;;;;4980547;28;20038;-79
2021/07/06 02:43:05;;;;;;;0.90;0.40;;;;;;;;;;4964052;28;20038;-79
2021/07/06 02:45:31;;;;;;;1.42;0.57;;;;;;;;;;4980030;28;20029;-79
2021/07/06 02:47:56;;;;;;;1.33;0.40;;;;;;;;;;4963505;28;20053;-79
2021/07/06 02:50:23;;;;;;;1.00;0.30;;;;;;;;;;5010565;28;20056;-79
2021/07/06 02:52:48;;;;;;;0.73;0.40;;;;;;;;;;5031931;28;20065;-79
2021/07/06 02:55:14;;;;;;;1.30;0.40;;;;;;;;;;5015785;28;20044;-78
2021/07/06 02:57:40;;;;;;;1.38;0.63;;;;;;;;;;5015737;28;20037;-79
2021/07/06 03:00:22;;;;;;;2.05;0.40;;;;;;;;;;4999207;28;20033;-79
2021/07/06 03:02:53;;;;;;;1.27;0.60;;;;;;;;;;5000467;28;20032;-79
2021/07/06 03:05:19;;;;;;;2.88;0.85;;;;;;;;;;4999021;28;20491;-79
2021/07/06 03:07:45;;;;;;;2.05;0.40;;;;;;;;;;4999198;28;20029;-79
2021/07/06 03:10:21;;;;;;;2.35;0.40;;;;;;;;;;4983046;28;20032;-78
2021/07/06 03:12:47;;;;;;;1.38;0.30;;;;;;;;;;5015620;28;20078;-79
2021/07/06 03:15:14;;;;;;;1.20;0.50;;;;;;;;;;4998386;28;20042;-79
2021/07/06 03:17:40;;;;;;;1.90;0.40;;;;;;;;;;4989038;28;20052;-79
2021/07/06 03:20:07;;;;;;;0.52;0.30;;;;;;;;;;4995764;28;20380;-79
2021/07/06 03:22:32;;;;;;;1.38;0.40;;;;;;;;;;4995444;28;20120;-79
2021/07/06 03:24:58;;;;;;;2.05;0.40;;;;;;;;;;4979604;28;20432;-79
2021/07/06 03:27:23;;;;;;;2.60;0.35;;;;;;;;;;4963335;28;20129;-80
2021/07/06 03:29:49;;;;;;;1.30;0.57;;;;;;;;;;4978955;28;20038;-80
2021/07/06 03:32:15;;;;;;;1.63;0.60;;;;;;;;;;4962935;28;20120;-80
2021/07/06 03:34:40;;;;;;;2.33;0.40;;;;;;;;;;4995272;28;20072;-80
2021/07/06 03:37:09;;;;;;;1.45;0.40;;;;;;;;;;4995317;28;20033;-85
2021/07/06 03:39:38;;;;;;;1.02;0.50;;;;;;;;;;4979676;28;20083;-82
2021/07/06 03:42:05;;;;;;;1.92;0.43;;;;;;;;;;4979227;28;20034;-84
2021/07/06 03:44:30;;;;;;;1.92;0.50;;;;;;;;;;4979001;28;20125;-84
2021/07/06 03:46:57;;;;;;;1.23;0.43;;;;;;;;;;4978165;28;20109;-86
2021/07/06 03:49:22;;;;;;;1.75;0.60;;;;;;;;;;5001446;28;20048;-85
2021/07/06 03:51:48;;;;;;;0.95;0.45;;;;;;;;;;5014944;28;20083;-85
2021/07/06 03:54:14;;;;;;;0.80;0.30;;;;;;;;;;4998098;28;20082;-83
2021/07/06 03:56:40;;;;;;;2.35;0.40;;;;;;;;;;5014543;28;20037;-85
2021/07/06 03:59:06;;;;;;;1.38;0.50;;;;;;;;;;4998075;28;20036;-84
2021/07/06 04:01:33;;;;;;;1.27;0.55;;;;;;;;;;5014358;28;20057;-83
2021/07/06 04:03:58;;;;;;;1.70;0.60;;;;;;;;;;5030597;28;20075;-84
2021/07/06 04:06:25;;;;;;;2.05;0.60;;;;;;;;;;4998196;28;20021;-84
2021/07/06 04:08:51;;;;;;;1.05;0.45;;;;;;;;;;5030892;28;20034;-84
2021/07/06 04:11:17;;;;;;;1.20;0.52;;;;;;;;;;5010675;28;20030;-84
2021/07/06 04:13:42;;;;;;;1.60;0.70;;;;;;;;;;4994914;28;20052;-81
2021/07/06 04:16:08;;;;;;;1.60;0.65;;;;;;;;;;4994268;28;20087;-81
2021/07/06 04:18:33;;;;;;;1.65;0.70;;;;;;;;;;4994208;28;20040;-81
2021/07/06 04:20:59;;;;;;;1.67;0.50;;;;;;;;;;4978848;28;20038;-81
2021/07/06 04:23:24;;;;;;;2.05;0.55;;;;;;;;;;4994343;28;20065;-81
2021/07/06 04:25:50;;;;;;;2.10;0.85;;;;;;;;;;4994590;28;20507;-82
2021/07/06 04:28:15;;;;;;;3.03;1.25;;;;;;;;;;4994378;28;20044;-81
2021/07/06 04:30:42;;;;;;;3.22;0.73;;;;;;;;;;5011013;28;20026;-80
2021/07/06 04:33:07;;;;;;;1.05;0.40;;;;;;;;;;4994786;28;20026;-82
2021/07/06 04:35:34;;;;;;;1.42;0.70;;;;;;;;;;4978478;28;20510;-86
2021/07/06 04:38:02;;;;;;;0.80;0.45;;;;;;;;;;4978865;28;20030;-89
2021/07/06 04:40:28;;;;;;;1.60;0.60;;;;;;;;;;5012021;28;20025;-86
2021/07/06 04:42:55;;;;;;;3.33;0.80;;;;;;;;;;4978906;28;20045;-85
2021/07/06 04:45:21;;;;;;;1.85;0.68;;;;;;;;;;4978532;28;20116;-85
2021/07/06 04:47:47;;;;;;;2.10;0.80;;;;;;;;;;4978413;28;20038;-85
2021/07/06 04:50:15;;;;;;;3.20;0.77;;;;;;;;;;4991158;28;20443;-85
2021/07/06 04:52:44;;;;;;;2.28;0.68;;;;;;;;;;4981743;28;20041;-84
2021/07/06 04:55:10;;;;;;;1.77;0.75;;;;;;;;;;5014669;28;20038;-85
2021/07/06 04:57:36;;;;;;;1.25;0.55;;;;;;;;;;4998112;28;20129;-83
2021/07/06 05:00:03;;;;;;;1.23;0.80;;;;;;;;;;5001423;28;20033;-83
2021/07/06 05:02:29;;;;;;;2.47;1.13;;;;;;;;;;5001426;28;20029;-81
2021/07/06 05:04:55;;;;;;;1.70;1.02;;;;;;;;;;5001478;28;20033;-81
2021/07/06 05:07:20;;;;;;;2.00;0.68;;;;;;;;;;5017378;28;20028;-83
2021/07/06 05:09:46;;;;;;;3.10;0.80;;;;;;;;;;5018058;28;20033;-83
2021/07/06 05:12:11;;;;;;;1.67;0.65;;;;;;;;;;5001361;28;20025;-84
2021/07/06 05:14:38;;;;;;;0.90;0.60;;;;;;;;;;5001035;28;20056;-85
2021/07/06 05:17:03;;;;;;;2.50;0.70;;;;;;;;;;5001364;28;20041;-84
2021/07/06 05:19:29;;;;;;;1.90;0.80;;;;;;;;;;5017830;28;20025;-85
2021/07/06 05:21:54;;;;;;;1.90;1.05;;;;;;;;;;5001321;28;20033;-84
2021/07/06 05:24:20;;;;;;;1.45;0.50;;;;;;;;;;5000781;28;20129;-80
2021/07/06 05:26:45;;;;;;;1.52;0.65;;;;;;;;;;5001012;28;20113;-80
2021/07/06 05:29:11;;;;;;;1.65;0.60;;;;;;;;;;5000980;28;20033;-79
2021/07/06 05:31:36;;;;;;;2.33;0.80;;;;;;;;;;5000891;28;20030;-79
2021/07/06 05:34:02;;;;;;;1.52;0.70;;;;;;;;;;5000631;28;20037;-79
2021/07/06 05:36:27;;;;;;;0.80;0.43;;;;;;;;;;5000874;28;20025;-79
2021/07/06 05:38:53;;;;;;;1.45;0.65;;;;;;;;;;5000621;28;20041;-79
2021/07/06 05:41:19;;;;;;;1.08;0.70;;;;;;;;;;4998571;28;20106;-79
2021/07/06 05:43:44;;;;;;;2.15;0.60;;;;;;;;;;5014751;28;20037;-78
2021/07/06 05:46:10;;;;;;;1.38;0.50;;;;;;;;;;5015865;28;20119;-79
2021/07/06 05:48:35;;;;;;;7.20;1.20;;;;;;;;;;5000363;28;20120;-80
2021/07/06 05:51:01;;;;;;;6.55;0.60;;;;;;;;;;5000783;28;20116;-79
2021/07/06 05:53:26;;;;;;;2.38;0.60;;;;;;;;;;5016591;28;20130;-80
2021/07/06 05:55:51;;;;;;;5.00;0.75;;;;;;;;;;5016657;28;20056;-80
2021/07/06 05:58:17;;;;;;;6.55;0.85;;;;;;;;;;5016576;28;20029;-79
2021/07/06 06:00:42;;;;;;;5.80;0.52;;;;;;;;;;4996720;28;20032;-79
2021/07/06 06:03:10;;;;;;;3.65;0.73;;;;;;;;;;5012847;28;20045;-79
2021/07/06 06:05:39;;;;;;;3.38;0.80;;;;;;;;;;5000569;28;20083;-79
2021/07/06 06:08:05;;;;;;;3.00;0.50;;;;;;;;;;4977081;28;20040;-80
2021/07/06 06:10:30;;;;;;;6.25;0.68;;;;;;;;;;5011759;28;20450;-80
2021/07/06 06:12:56;;;;;;;8.43;1.13;;;;;;;;;;5013240;28;20044;-78
2021/07/06 06:15:21;;;;;;;6.75;1.25;;;;;;;;;;5029543;28;20084;-79
2021/07/06 06:17:47;;;;;;;6.53;1.17;;;;;;;;;;4996747;28;20037;-79
2021/07/06 06:20:13;;;;;;;6.70;0.80;;;;;;;;;;5015707;28;20466;-79
2021/07/06 06:22:40;;;;;;;17.45;1.80;;;;;;;;;;5015756;28;20069;-79
2021/07/06 06:25:06;;;;;;;8.05;1.33;;;;;;;;;;5049003;28;20476;-79
2021/07/06 06:27:32;;;;;;;9.13;1.88;;;;;;;;;;5016060;28;20026;-79
2021/07/06 06:29:57;;;;;;;6.50;2.75;;;;;;;;;;5033236;28;20553;-79
2021/07/06 06:32:23;;;;;;;15.50;9.50;;;;;;;;;;5016172;28;20073;-80
2021/07/06 06:34:50;;;;;;;12.40;6.32;;;;;;;;;;5032435;28;20417;-79
2021/07/06 06:37:16;;;;;;;10.30;5.75;;;;;;;;;;5032253;28;20087;-80
2021/07/06 06:39:41;;;;;;;6.43;1.60;;;;;;;;;;5031995;28;20030;-81
2021/07/06 06:42:07;;;;;;;14.70;3.05;;;;;;;;;;5016100;28;20029;-81
2021/07/06 06:44:33;;;;;;;7.55;2.33;;;;;;;;;;5015748;28;20479;-78
2021/07/06 06:46:59;;;;;;;7.88;1.85;;;;;;;;;;5032444;28;20052;-79
2021/07/06 06:49:24;;;;;;;10.48;2.10;;;;;;;;;;5025616;28;20022;-78
2021/07/06 06:51:50;;;;;;;4.95;1.00;;;;;;;;;;5012505;28;20041;-78
2021/07/06 06:54:15;;;;;;;4.85;1.30;;;;;;;;;;5011829;28;20033;-80
2021/07/06 06:56:42;;;;;;;3.97;1.13;;;;;;;;;;4995858;28;20099;-80
2021/07/06 06:59:08;;;;;;;6.32;0.95;;;;;;;;;;4998331;28;20026;-81
2021/07/06 07:01:34;;;;;;;1.70;0.52;;;;;;;;;;5014593;28;20400;-80
2021/07/06 07:04:00;;;;;;;0.50;0.20;;;;;;;;;;4994238;28;20038;-80
2021/07/06 07:06:26;;;;;;;2.10;0.40;;;;;;;;;;5008833;28;20052;-81
2021/07/06 07:08:51;;;;;;;1.73;0.45;;;;;;;;;;4998232;28;20022;-80
2021/07/06 07:11:17;;;;;;;2.67;0.50;;;;;;;;;;4999270;28;20026;-81
2021/07/06 07:13:42;;;;;;;1.48;0.65;;;;;;;;;;4998925;28;20025;-81
2021/07/06 07:16:08;;;;;;;1.98;0.40;;;;;;;;;;4998764;28;20099;-79
2021/07/06 07:18:34;;;;;;;1.95;1.00;;;;;;;;;;4998523;28;20084;-79
2021/07/06 07:20:59;;;;;;;1.85;0.50;;;;;;;;;;4998360;28;20061;-78
2021/07/06 07:23:25;;;;;;;2.95;0.40;;;;;;;;;;4978710;28;20121;-78
2021/07/06 07:25:50;;;;;;;3.42;0.68;;;;;;;;;;5011485;28;20127;-79
2021/07/06 07:28:16;;;;;;;2.33;0.60;;;;;;;;;;4995444;28;20030;-79
2021/07/06 07:30:41;;;;;;;1.75;0.47;;;;;;;;;;4995479;28;20057;-80
2021/07/06 07:33:07;;;;;;;1.33;0.70;;;;;;;;;;4994847;28;20030;-79
2021/07/06 07:35:32;;;;;;;2.50;0.57;;;;;;;;;;4995072;28;20464;-78
2021/07/06 07:37:58;;;;;;;2.78;0.40;;;;;;;;;;5011139;28;20095;-79
2021/07/06 07:40:23;;;;;;;1.30;0.60;;;;;;;;;;4994855;28;20042;-78
2021/07/06 07:42:49;;;;;;;1.50;0.57;;;;;;;;;;5011652;28;20168;-78
2021/07/06 07:45:14;;;;;;;3.28;0.63;;;;;;;;;;5011455;28;20117;-78
2021/07/06 07:47:40;;;;;;;0.80;0.30;;;;;;;;;;4994852;28;20603;-78
2021/07/06 07:50:06;;;;;;;0.93;0.45;;;;;;;;;;5007025;28;20029;-77
2021/07/06 07:52:35;;;;;;;1.13;0.50;;;;;;;;;;5014432;28;20050;-79
2021/07/06 07:55:02;;;;;;;1.15;0.30;;;;;;;;;;5014437;28;20399;-79
2021/07/06 07:57:27;;;;;;;2.55;0.40;;;;;;;;;;4997715;28;20060;-79
2021/07/06 07:59:53;;;;;;;1.73;0.40;;;;;;;;;;5003317;28;20091;-78
2021/07/06 08:02:20;;;;;;;1.90;0.60;;;;;;;;;;5014285;28;20066;-79
2021/07/06 08:04:45;;;;;;;1.30;0.30;;;;;;;;;;5014213;28;20476;-79
2021/07/06 08:07:11;;;;;;;4.68;0.55;;;;;;;;;;4997768;28;20040;-79
2021/07/06 08:09:37;;;;;;;2.10;0.40;;;;;;;;;;5013932;28;20033;-79
2021/07/06 08:12:03;;;;;;;1.55;0.50;;;;;;;;;;4997909;28;20104;-78
2021/07/06 08:14:29;;;;;;;1.50;0.50;;;;;;;;;;5014180;28;20120;-78
2021/07/06 08:16:54;;;;;;;1.77;0.52;;;;;;;;;;4997490;28;20563;-78
2021/07/06 08:19:20;;;;;;;1.52;0.40;;;;;;;;;;4997657;28;20045;-80
2021/07/06 08:21:46;;;;;;;2.42;0.40;;;;;;;;;;4997828;28;20088;-79
2021/07/06 08:24:12;;;;;;;2.97;0.68;;;;;;;;;;5013933;28;20045;-79
2021/07/06 08:26:37;;;;;;;1.45;0.32;;;;;;;;;;4997954;28;20068;-79
2021/07/06 08:29:04;;;;;;;4.07;0.73;;;;;;;;;;4997833;28;20057;-78
2021/07/06 08:31:30;;;;;;;1.80;0.47;;;;;;;;;;4997743;28;20048;-78
2021/07/06 08:33:55;;;;;;;2.22;0.95;;;;;;;;;;4996645;28;20467;-79
2021/07/06 08:36:21;;;;;;;1.58;0.50;;;;;;;;;;4997696;28;20424;-78
2021/07/06 08:38:46;;;;;;;1.45;0.47;;;;;;;;;;5014088;28;20108;-77
2021/07/06 08:41:12;;;;;;;3.42;0.63;;;;;;;;;;5014132;28;20072;-78
2021/07/06 08:43:38;;;;;;;1.65;0.40;;;;;;;;;;5013909;28;20498;-78
2021/07/06 08:46:03;;;;;;;2.30;0.95;;;;;;;;;;4997737;28;20037;-77
2021/07/06 08:48:31;;;;;;;1.20;0.68;;;;;;;;;;5013515;28;20033;-77
2021/07/06 08:50:57;;;;;;;3.45;0.98;;;;;;;;;;5014178;28;20379;-76
2021/07/06 08:53:23;;;;;;;5.78;0.80;;;;;;;;;;5013319;28;20033;-76
2021/07/06 08:55:48;;;;;;;3.10;0.77;;;;;;;;;;5013866;28;20040;-77
2021/07/06 08:58:16;;;;;;;3.05;0.85;;;;;;;;;;5013897;28;20030;-77
2021/07/06 09:00:42;;;;;;;2.40;0.60;;;;;;;;;;4994344;28;20037;-77
2021/07/06 09:03:09;;;;;;;4.43;0.70;;;;;;;;;;5042492;28;20025;-77
2021/07/06 09:05:35;;;;;;;3.63;0.73;;;;;;;;;;5013395;28;20052;-79
2021/07/06 09:08:00;;;;;;;2.65;0.80;;;;;;;;;;5014074;28;20483;-78
2021/07/06 09:10:33;;;;;;;3.63;0.73;;;;;;;;;;5013701;28;20025;-79
2021/07/06 09:12:59;;;;;;;4.53;1.05;;;;;;;;;;5030321;28;20037;-79
2021/07/06 09:15:31;;;;;;;2.85;0.70;;;;;;;;;;5030217;28;20036;-79
2021/07/06 09:18:04;;;;;;;4.47;0.50;;;;;;;;;;5029873;28;20044;-79
2021/07/06 09:20:29;;;;;;;2.05;0.90;;;;;;;;;;5013969;28;20061;-79
2021/07/06 09:23:17;;;;;;;7.00;1.15;;;;;;;;;;5013683;28;20373;-79
2021/07/06 09:25:43;;;;;;;2.88;0.80;;;;;;;;;;5016312;28;20037;-79
2021/07/06 09:28:26;;;;;;;2.90;0.40;;;;;;;;;;5028235;28;20041;-79
2021/07/06 09:30:52;;;;;;;2.15;0.50;;;;;;;;;;4996874;28;20025;-79
2021/07/06 09:33:30;;;;;;;2.20;0.40;;;;;;;;;;5013153;28;20047;-78
2021/07/06 09:35:55;;;;;;;2.58;0.40;;;;;;;;;;5013275;28;20030;-78
2021/07/06 09:38:21;;;;;;;2.17;0.40;;;;;;;;;;5013542;28;20072;-78
2021/07/06 09:40:49;;;;;;;1.38;0.40;;;;;;;;;;5013868;28;20068;-79
2021/07/06 09:43:21;;;;;;;6.32;1.92;;;;;;;;;;4998031;28;20034;-78
2021/07/06 09:46:09;;;;;;;2.25;0.50;;;;;;;;;;5033465;28;20025;-79
2021/07/06 09:48:43;;;;;;;1.50;0.30;;;;;;;;;;5019189;28;20119;-79
2021/07/06 09:51:26;;;;;;;3.10;0.50;;;;;;;;;;5001127;28;20136;-78
2021/07/06 09:53:55;;;;;;;2.55;0.68;;;;;;;;;;5025886;28;20368;-79
2021/07/06 09:56:26;;;;;;;2.83;0.82;;;;;;;;;;5008335;28;20025;-78
2021/07/06 09:59:03;;;;;;;3.70;0.70;;;;;;;;;;5033470;28;20037;-77
2021/07/06 10:01:29;;;;;;;2.47;0.68;;;;;;;;;;4999097;28;20498;-77
2021/07/06 10:03:55;;;;;;;2.08;0.50;;;;;;;;;;4999879;28;20116;-77
2021/07/06 10:06:22;;;;;;;2.08;0.50;;;;;;;;;;5014976;28;20072;-78
2021/07/06 10:08:51;;;;;;;3.05;0.50;;;;;;;;;;4999428;28;21687;-77
2021/07/06 10:11:17;;;;;;;4.75;1.17;;;;;;;;;;5016980;28;20025;-78
2021/07/06 10:13:43;;;;;;;2.03;0.77;;;;;;;;;;5019093;28;20033;-77
2021/07/06 10:16:09;;;;;;;2.95;0.50;;;;;;;;;;5014095;28;20562;-77
2021/07/06 10:18:34;;;;;;;5.93;1.02;;;;;;;;;;5029173;28;20479;-77
2021/07/06 10:21:00;;;;;;;5.25;0.47;;;;;;;;;;5013190;28;20040;-78
2021/07/06 10:23:25;;;;;;;2.95;0.88;;;;;;;;;;5012901;28;20038;-77
2021/07/06 10:25:55;;;;;;;3.75;0.70;;;;;;;;;;4996880;28;20153;-77
2021/07/06 10:28:22;;;;;;;3.00;0.43;;;;;;;;;;5009504;28;20037;-78
2021/07/06 10:30:48;;;;;;;8.13;1.10;;;;;;;;;;5009029;28;20034;-78
2021/07/06 10:33:28;;;;;;;4.60;0.60;;;;;;;;;;4997341;28;20038;-78
2021/07/06 10:35:54;;;;;;;6.03;0.98;;;;;;;;;;5013837;28;20029;-77
2021/07/06 10:38:32;;;;;;;2.45;0.43;;;;;;;;;;5020802;28;20041;-77
2021/07/06 10:41:02;;;;;;;3.17;0.60;;;;;;;;;;5049465;28;20084;-77
2021/07/06 10:43:42;;;;;;;3.63;0.40;;;;;;;;;;5029799;28;20039;-77
2021/07/06 10:46:14;;;;;;;1.60;0.95;;;;;;;;;;5045171;28;20025;-77
2021/07/06 10:48:59;;;;;;;3.67;0.65;;;;;;;;;;5029766;28;20437;-77
2021/07/06 10:51:34;;;;;;;2.80;0.80;;;;;;;;;;5032549;28;20052;-77
2021/07/06 10:54:26;;;;;;;4.88;1.23;;;;;;;;;;5048615;28;20542;-78
2021/07/06 10:56:55;;;;;;;4.05;0.40;;;;;;;;;;5031809;28;20033;-78
2021/07/06 10:59:21;;;;;;;2.45;0.45;;;;;;;;;;5033255;28;20033;-78
2021/07/06 11:01:49;;;;;;;3.75;0.75;;;;;;;;;;5031956;28;20056;-78
2021/07/06 11:04:38;;;;;;;3.92;0.57;;;;;;;;;;5033093;28;20029;-78
2021/07/06 11:07:05;;;;;;;5.30;0.70;;;;;;;;;;5031255;28;20044;-78
2021/07/06 11:09:32;;;;;;;5.65;2.33;;;;;;;;;;5031444;28;20045;-79
2021/07/06 11:12:26;;;;;;;7.15;2.10;;;;;;;;;;5031632;28;20031;-77
2021/07/06 11:14:57;;;;;;;6.82;2.15;;;;;;;;;;5034093;28;20392;-77
2021/07/06 11:17:33;;;;;;;4.88;1.90;;;;;;;;;;5031264;28;20037;-78
2021/07/06 11:19:59;;;;;;;5.93;1.27;;;;;;;;;;5013317;28;20136;-78
2021/07/06 11:22:38;;;;;;;5.57;0.77;;;;;;;;;;5011121;28;20029;-78
2021/07/06 11:25:15;;;;;;;5.72;0.90;;;;;;;;;;5013681;28;20056;-78
2021/07/06 11:27:54;;;;;;;3.72;0.60;;;;;;;;;;5031017;28;20035;-79
2021/07/06 11:30:24;;;;;;;4.78;1.00;;;;;;;;;;5030566;28;20040;-78
2021/07/06 11:33:04;;;;;;;5.25;0.77;;;;;;;;;;4995393;28;20231;-78
2021/07/06 11:35:30;;;;;;;4.00;0.98;;;;;;;;;;5005024;28;20113;-78
2021/07/06 11:37:59;;;;;;;5.20;0.70;;;;;;;;;;4995231;28;20022;-78
2021/07/06 11:40:24;;;;;;;3.63;0.80;;;;;;;;;;4979345;28;20041;-78
2021/07/06 11:42:52;;;;;;;3.40;0.50;;;;;;;;;;4995605;28;20121;-78
2021/07/06 11:45:20;;;;;;;7.45;1.10;;;;;;;;;;4979891;28;20116;-78
2021/07/06 11:47:45;;;;;;;4.82;0.80;;;;;;;;;;4992899;28;20030;-78
2021/07/06 11:50:24;;;;;;;4.90;1.00;;;;;;;;;;5031472;28;20380;-78
2021/07/06 11:52:50;;;;;;;5.45;1.35;;;;;;;;;;5031135;28;20041;-78
2021/07/06 11:55:23;;;;;;;2.90;1.05;;;;;;;;;;5014781;28;20361;-78
2021/07/06 11:57:52;;;;;;;3.90;0.82;;;;;;;;;;5014224;28;20080;-78
2021/07/06 12:00:19;;;;;;;5.57;1.02;;;;;;;;;;5003808;28;20484;-77
2021/07/06 12:02:44;;;;;;;4.35;0.80;;;;;;;;;;5025549;28;20429;-78
2021/07/06 12:05:15;;;;;;;9.20;1.52;;;;;;;;;;4998375;28;20099;-77
2021/07/06 12:07:40;;;;;;;7.78;1.55;;;;;;;;;;4997207;28;20427;-78
2021/07/06 12:10:09;;;;;;;4.63;0.90;;;;;;;;;;4981873;28;20487;-78
2021/07/06 12:12:34;;;;;;;5.78;1.35;;;;;;;;;;4982523;28;20503;-78
2021/07/06 12:15:00;;;;;;;4.30;0.82;;;;;;;;;;4996001;28;20045;-78
2021/07/06 12:17:26;;;;;;;8.32;1.10;;;;;;;;;;4994553;28;20038;-78
2021/07/06 12:19:52;;;;;;;5.65;1.40;;;;;;;;;;5030869;28;20040;-77
2021/07/06 12:22:19;;;;;;;4.72;0.80;;;;;;;;;;5014234;28;20025;-78
2021/07/06 12:24:44;;;;;;;3.35;0.90;;;;;;;;;;5014576;28;20037;-78
2021/07/06 12:27:14;;;;;;;4.60;0.93;;;;;;;;;;4997740;28;20033;-78
2021/07/06 12:29:40;;;;;;;5.15;1.10;;;;;;;;;;4998987;28;20036;-78
2021/07/06 12:32:11;;;;;;;4.25;1.27;;;;;;;;;;5013904;28;20040;-78
2021/07/06 12:34:38;;;;;;;5.20;1.50;;;;;;;;;;4999397;28;20679;-79
2021/07/06 12:37:03;;;;;;;4.43;1.08;;;;;;;;;;5013935;28;20430;-78
2021/07/06 12:39:36;;;;;;;5.78;1.27;;;;;;;;;;4997838;28;20125;-79
2021/07/06 12:42:20;;;;;;;3.35;0.63;;;;;;;;;;4978214;28;20026;-79
2021/07/06 12:44:49;;;;;;;7.80;1.33;;;;;;;;;;5027154;28;20124;-78
2021/07/06 12:47:18;;;;;;;4.20;1.05;;;;;;;;;;5037353;28;20038;-79
2021/07/06 12:50:05;;;;;;;4.68;0.98;;;;;;;;;;5038692;28;20044;-80
2021/07/06 12:52:30;;;;;;;8.23;1.33;;;;;;;;;;4994067;28;20032;-79
2021/07/06 12:54:55;;;;;;;5.35;1.30;;;;;;;;;;5033600;28;20426;-80
2021/07/06 12:57:27;;;;;;;8.70;1.10;;;;;;;;;;4995693;28;20376;-80
2021/07/06 13:00:16;;;;;;;5.50;1.10;;;;;;;;;;4994379;28;20021;-80
2021/07/06 13:02:43;;;;;;;3.33;0.80;;;;;;;;;;5011632;28;20070;-79
2021/07/06 13:05:19;;;;;;;5.88;1.10;;;;;;;;;;4997220;28;20029;-79
2021/07/06 13:07:45;;;;;;;5.57;1.27;;;;;;;;;;5029780;28;20120;-79
2021/07/06 13:10:12;;;;;;;2.75;0.70;;;;;;;;;;4992727;28;20052;-78
2021/07/06 13:12:38;;;;;;;6.47;0.82;;;;;;;;;;5030020;28;20038;-79
2021/07/06 13:15:05;;;;;;;5.97;0.93;;;;;;;;;;4994827;28;20045;-78
2021/07/06 13:17:31;;;;;;;3.28;0.80;;;;;;;;;;4978596;28;20387;-78
2021/07/06 13:19:58;;;;;;;7.35;1.20;;;;;;;;;;4997768;28;20034;-81
2021/07/06 13:22:23;;;;;;;4.22;1.00;;;;;;;;;;4997631;28;20034;-80
2021/07/06 13:24:49;;;;;;;3.53;0.95;;;;;;;;;;5013822;28;20377;-81
2021/07/06 13:27:14;;;;;;;4.28;1.23;;;;;;;;;;4997888;28;20095;-81
2021/07/06 13:29:40;;;;;;;7.30;1.95;;;;;;;;;;5014609;28;20033;-81
2021/07/06 13:32:05;;;;;;;11.23;6.20;;;;;;;;;;4997631;28;20038;-79
2021/07/06 13:34:31;;;;;;;11.48;4.40;;;;;;;;;;4996692;28;20078;-78
2021/07/06 13:36:57;;;;;;;7.40;1.98;;;;;;;;;;4983988;28;20108;-80
2021/07/06 13:39:22;;;;;;;5.97;1.20;;;;;;;;;;4998291;28;20053;-80
2021/07/06 13:41:48;;;;;;;7.50;1.20;;;;;;;;;;5016575;28;20115;-81
2021/07/06 13:44:13;;;;;;;5.18;0.90;;;;;;;;;;4983881;28;20017;-80
2021/07/06 13:46:39;;;;;;;6.50;1.38;;;;;;;;;;4991554;28;20117;-80
2021/07/06 13:49:06;;;;;;;6.35;1.20;;;;;;;;;;5016940;28;20025;-80
2021/07/06 13:51:32;;;;;;;4.68;0.70;;;;;;;;;;5015776;28;20369;-81
2021/07/06 13:54:04;;;;;;;5.97;1.10;;;;;;;;;;4998165;28;20037;-81
2021/07/06 13:56:29;;;;;;;3.03;0.80;;;;;;;;;;5014985;28;20040;-80
2021/07/06 13:58:55;;;;;;;3.63;0.70;;;;;;;;;;4983840;28;20025;-79
2021/07/06 14:01:21;;;;;;;5.25;0.98;;;;;;;;;;5015348;28;20037;-80
2021/07/06 14:03:46;;;;;;;3.67;0.70;;;;;;;;;;4998979;28;20049;-80
2021/07/06 14:06:15;;;;;;;4.00;1.00;;;;;;;;;;5015939;28;20091;-80
2021/07/06 14:08:40;;;;;;;4.97;1.23;;;;;;;;;;5016006;28;20029;-81
2021/07/06 14:11:06;;;;;;;2.60;1.00;;;;;;;;;;5016050;28;20730;-80
2021/07/06 14:13:31;;;;;;;4.55;0.77;;;;;;;;;;4983497;28;20029;-81
2021/07/06 14:15:57;;;;;;;9.10;1.45;;;;;;;;;;5000043;28;20045;-81
2021/07/06 14:18:22;;;;;;;6.30;1.48;;;;;;;;;;4999200;28;20037;-81
2021/07/06 14:20:48;;;;;;;3.85;0.80;;;;;;;;;;4983262;28;20033;-81
2021/07/06 14:23:13;;;;;;;5.90;1.55;;;;;;;;;;5016068;28;20196;-80
2021/07/06 14:25:42;;;;;;;4.25;0.90;;;;;;;;;;5016187;28;20037;-81
2021/07/06 14:28:08;;;;;;;5.30;1.30;;;;;;;;;;5016736;28;20080;-81
2021/07/06 14:30:33;;;;;;;3.63;1.17;;;;;;;;;;4998709;28;20045;-80
2021/07/06 14:33:00;;;;;;;3.47;0.90;;;;;;;;;;5015903;28;20033;-79
2021/07/06 14:35:27;;;;;;;3.90;1.08;;;;;;;;;;5015811;28;20041;-80
2021/07/06 14:37:52;;;;;;;4.32;1.10;;;;;;;;;;4999403;28;20029;-80
2021/07/06 14:40:18;;;;;;;5.13;1.35;;;;;;;;;;5016279;28;20060;-80
2021/07/06 14:42:43;;;;;;;5.40;1.52;;;;;;;;;;4999987;28;20099;-80
2021/07/06 14:45:09;;;;;;;5.18;0.70;;;;;;;;;;5015658;28;20092;-80